Time;durP1;ratioP1;P1;durP2;ratioP2;P2;SDS_P1;SDS_P2;PMS_P1;PMS_P2;Temp;Humidity;BMP_temperature;BMP_pressure;BME280_temperature;BME280_humidity;BME280_pressure;Samples;Min_cycle;Max_cycle;Signal;HPM_P1;HPM_P2
2022/11/30 00:01:01;;;;;;;54.18;21.85;;;;;;;1.29;100.00;99832.31;2249061;79;21245;-59
2022/11/30 00:04:02;;;;;;;52.20;23.15;;;;;;;1.33;100.00;99838.73;2249162;79;21029;-58
2022/11/30 00:07:04;;;;;;;47.33;19.30;;;;;;;1.25;100.00;99831.91;2249613;79;21540;-58
2022/11/30 00:10:05;;;;;;;43.50;20.17;;;;;;;1.23;100.00;99833.22;2249220;79;21020;-59
2022/11/30 00:13:07;;;;;;;46.68;19.42;;;;;;;1.15;100.00;99838.45;2249221;79;21542;-59
2022/11/30 00:16:08;;;;;;;43.13;18.48;;;;;;;1.09;100.00;99844.08;2249363;79;21060;-59
2022/11/30 00:19:10;;;;;;;43.05;19.48;;;;;;;1.07;100.00;99841.50;2249182;79;21060;-58
2022/11/30 00:22:11;;;;;;;43.90;18.98;;;;;;;1.04;100.00;99836.36;2249498;79;21500;-58
2022/11/30 00:25:13;;;;;;;49.55;20.57;;;;;;;1.03;100.00;99841.09;2249135;79;21084;-58
2022/11/30 00:28:14;;;;;;;43.63;19.07;;;;;;;1.06;100.00;99839.78;2249123;79;21532;-58
2022/11/30 00:31:16;;;;;;;44.35;18.75;;;;;;;1.10;100.00;99836.76;2249189;79;21021;-58
2022/11/30 00:34:17;;;;;;;43.00;18.53;;;;;;;1.07;100.00;99843.23;2249359;79;21605;-58
2022/11/30 00:37:18;;;;;;;43.05;18.23;;;;;;;0.98;100.00;99846.30;2249372;79;21036;-58
2022/11/30 00:40:21;;;;;;;42.50;17.55;;;;;;;1.04;100.00;99852.70;2249175;79;21061;-58
2022/11/30 00:43:22;;;;;;;44.55;17.67;;;;;;;1.11;100.00;99853.98;2249591;79;21057;-59
2022/11/30 00:46:24;;;;;;;42.83;18.55;;;;;;;1.10;100.00;99858.72;2249215;79;21017;-58
2022/11/30 00:49:25;;;;;;;42.23;18.60;;;;;;;1.04;100.00;99858.32;2249316;79;21029;-58
2022/11/30 00:52:27;;;;;;;42.53;17.57;;;;;;;0.95;100.00;99863.52;2249115;79;21100;-58
2022/11/30 00:55:30;;;;;;;44.55;17.82;;;;;;;1.01;100.00;99867.39;2249245;79;21597;-58
2022/11/30 00:58:31;;;;;;;38.92;16.82;;;;;;;1.04;100.00;99862.20;2249352;79;20969;-58
2022/11/30 01:01:34;;;;;;;41.45;17.45;;;;;;;0.88;100.00;99860.12;2249283;79;21037;-58
2022/11/30 01:04:36;;;;;;;39.23;17.20;;;;;;;0.89;100.00;99863.15;2248835;79;20974;-58
2022/11/30 01:07:38;;;;;;;43.98;18.90;;;;;;;0.88;100.00;99865.30;2249457;79;21490;-58
2022/11/30 01:10:39;;;;;;;40.90;17.40;;;;;;;0.80;100.00;99865.76;2249182;79;21022;-58
2022/11/30 01:13:40;;;;;;;41.88;19.07;;;;;;;0.95;100.00;99871.27;2249199;79;21523;-58
2022/11/30 01:16:42;;;;;;;39.35;16.77;;;;;;;0.95;100.00;99867.39;2249254;79;21057;-58
2022/11/30 01:19:43;;;;;;;38.50;17.05;;;;;;;1.03;100.00;99870.39;2249015;79;21126;-58
2022/11/30 01:22:45;;;;;;;38.02;17.00;;;;;;;0.90;100.00;99868.72;2249305;79;21024;-58
2022/11/30 01:25:46;;;;;;;36.20;16.05;;;;;;;0.97;100.00;99866.97;2249164;79;21064;-58
2022/11/30 01:28:47;;;;;;;40.88;17.15;;;;;;;0.94;100.00;99863.12;2249386;79;21056;-58
2022/11/30 01:31:49;;;;;;;39.35;17.17;;;;;;;0.97;100.00;99865.68;2249155;79;21009;-58
2022/11/30 01:34:50;;;;;;;35.83;16.42;;;;;;;0.91;100.00;99865.28;2249383;79;21499;-58
2022/11/30 01:37:52;;;;;;;38.80;17.10;;;;;;;1.02;100.00;99871.25;2249194;79;21009;-58
2022/11/30 01:40:53;;;;;;;39.33;17.23;;;;;;;1.04;100.00;99871.23;2249106;79;21084;-58
2022/11/30 01:43:55;;;;;;;39.98;15.98;;;;;;;0.98;100.00;99861.80;2249275;79;21049;-59
2022/11/30 01:46:57;;;;;;;37.65;16.25;;;;;;;1.00;100.00;99869.09;2249333;79;21056;-58
2022/11/30 01:49:58;;;;;;;42.95;18.27;;;;;;;0.88;100.00;99868.30;2249213;79;21025;-58
2022/11/30 01:52:59;;;;;;;39.38;15.83;;;;;;;0.83;100.00;99867.03;2249097;79;21033;-58
2022/11/30 01:56:01;;;;;;;37.67;16.85;;;;;;;0.83;100.00;99861.86;2248995;79;21040;-58
2022/11/30 01:59:02;;;;;;;39.75;16.32;;;;;;;0.87;100.00;99862.28;2249099;79;21047;-58
2022/11/30 02:02:04;;;;;;;37.77;16.03;;;;;;;0.82;100.00;99859.73;2249625;79;21539;-59
2022/11/30 02:05:05;;;;;;;36.87;17.20;;;;;;;0.82;100.00;99857.55;2249019;79;21032;-58
2022/11/30 02:08:07;;;;;;;36.53;16.32;;;;;;;0.79;100.00;99861.45;2249383;79;21542;-58
2022/11/30 02:11:09;;;;;;;39.23;17.40;;;;;;;0.83;100.00;99860.16;2249158;79;21076;-58
2022/11/30 02:14:10;;;;;;;41.15;17.40;;;;;;;0.88;100.00;99861.83;2249237;79;21509;-58
2022/11/30 02:17:11;;;;;;;37.83;16.40;;;;;;;1.03;100.00;99866.52;2249075;79;21061;-58
2022/11/30 02:20:13;;;;;;;39.40;16.45;;;;;;;1.18;100.00;99862.13;2249073;79;21048;-58
2022/11/30 02:23:14;;;;;;;38.05;17.15;;;;;;;1.27;100.00;99867.67;2249250;79;21012;-58
2022/11/30 02:26:16;;;;;;;37.25;15.98;;;;;;;1.23;100.00;99864.67;2249163;79;21084;-58
2022/11/30 02:29:17;;;;;;;38.55;17.07;;;;;;;1.16;100.00;99872.89;2249297;79;21051;-58
2022/11/30 02:32:18;;;;;;;37.78;17.35;;;;;;;1.14;100.00;99878.07;2249097;79;21033;-58
2022/11/30 02:35:20;;;;;;;38.37;18.07;;;;;;;1.22;100.00;99880.59;2249610;79;21044;-58
2022/11/30 02:38:22;;;;;;;38.33;15.65;;;;;;;1.15;100.00;99886.67;2249047;79;21212;-59
2022/11/30 02:41:23;;;;;;;37.85;16.25;;;;;;;1.18;100.00;99886.68;2249132;79;21030;-58
2022/11/30 02:44:24;;;;;;;33.95;15.03;;;;;;;1.24;100.00;99890.52;2249346;79;21064;-58
2022/11/30 02:47:26;;;;;;;36.13;15.43;;;;;;;1.24;100.00;99890.52;2249100;79;21048;-59
2022/11/30 02:50:27;;;;;;;36.70;15.70;;;;;;;1.13;100.00;99887.13;2249223;79;21559;-59
2022/11/30 02:53:29;;;;;;;34.88;15.55;;;;;;;1.08;100.00;99884.98;2249146;79;21117;-58
2022/11/30 02:56:30;;;;;;;36.20;15.63;;;;;;;0.99;100.00;99881.61;2249007;79;21535;-58
2022/11/30 02:59:32;;;;;;;36.42;15.63;;;;;;;0.95;100.00;99879.90;2249077;79;21055;-58
2022/11/30 03:02:34;;;;;;;35.98;15.93;;;;;;;0.99;100.00;99875.56;2249154;79;21073;-58
2022/11/30 03:05:36;;;;;;;36.65;15.68;;;;;;;0.99;100.00;99879.02;2249010;79;21058;-58
2022/11/30 03:08:37;;;;;;;37.78;15.90;;;;;;;1.00;100.00;99883.75;2248847;79;21116;-58
2022/11/30 03:11:38;;;;;;;39.27;16.02;;;;;;;1.03;100.00;99887.19;2249468;79;21028;-58
2022/11/30 03:14:40;;;;;;;35.03;15.13;;;;;;;0.93;100.00;99880.77;2249145;79;21076;-59
2022/11/30 03:17:41;;;;;;;37.23;15.93;;;;;;;0.96;100.00;99879.05;2249442;79;21005;-58
2022/11/30 03:20:43;;;;;;;35.95;16.05;;;;;;;1.00;100.00;99879.87;2249145;79;21029;-58
2022/11/30 03:23:44;;;;;;;38.30;16.00;;;;;;;1.12;100.00;99887.57;2249344;79;21543;-58
2022/11/30 03:26:46;;;;;;;36.28;15.32;;;;;;;1.10;100.00;99888.00;2249067;79;21017;-59
2022/11/30 03:29:47;;;;;;;39.00;16.42;;;;;;;1.04;100.00;99886.75;2248970;79;21642;-58
2022/11/30 03:32:48;;;;;;;35.33;15.15;;;;;;;1.04;100.00;99887.59;2249156;79;21092;-58
2022/11/30 03:35:50;;;;;;;33.70;15.28;;;;;;;1.03;100.00;99891.48;2248684;79;20989;-58
2022/11/30 03:38:52;;;;;;;38.40;16.12;;;;;;;1.13;100.00;99897.02;2249349;79;21044;-58
2022/11/30 03:41:53;;;;;;;37.13;16.25;;;;;;;1.03;100.00;99898.81;2249011;79;21048;-58
2022/11/30 03:44:55;;;;;;;35.23;16.12;;;;;;;1.15;100.00;99898.30;2248970;79;20986;-58
2022/11/30 03:47:57;;;;;;;37.58;16.05;;;;;;;1.16;100.00;99901.32;2249043;79;21048;-58
2022/11/30 03:50:59;;;;;;;35.77;16.27;;;;;;;1.15;100.00;99899.59;2249529;79;21068;-58
2022/11/30 03:54:00;;;;;;;33.38;14.25;;;;;;;1.26;100.00;99900.84;2249166;79;21080;-58
2022/11/30 03:57:02;;;;;;;34.50;15.03;;;;;;;1.15;100.00;99903.47;2249084;79;21062;-58
2022/11/30 04:00:03;;;;;;;37.25;16.15;;;;;;;1.07;100.00;99901.37;2249240;79;21097;-58
2022/11/30 04:03:05;;;;;;;34.10;15.77;;;;;;;1.07;100.00;99900.09;2249206;79;21113;-58
2022/11/30 04:06:06;;;;;;;34.88;15.08;;;;;;;1.15;100.00;99904.76;2249018;79;21087;-59
2022/11/30 04:09:08;;;;;;;38.20;15.50;;;;;;;1.08;100.00;99905.66;2249209;79;21551;-58
2022/11/30 04:12:09;;;;;;;36.95;15.43;;;;;;;1.03;100.00;99898.81;2249005;79;21051;-58
2022/11/30 04:15:11;;;;;;;37.30;15.65;;;;;;;0.91;100.00;99900.16;2248993;79;21547;-58
2022/11/30 04:18:12;;;;;;;34.78;14.90;;;;;;;1.02;100.00;99902.67;2249153;79;21009;-58
2022/11/30 04:21:14;;;;;;;37.03;15.40;;;;;;;0.92;100.00;99903.17;2249042;79;21016;-58
2022/11/30 04:24:15;;;;;;;35.40;14.55;;;;;;;0.85;100.00;99901.03;2249255;79;21184;-58
2022/11/30 04:27:17;;;;;;;36.00;15.65;;;;;;;0.69;100.00;99901.98;2248968;79;21103;-58
2022/11/30 04:30:18;;;;;;;36.23;15.08;;;;;;;0.53;100.00;99901.14;2249153;79;21028;-58
2022/11/30 04:33:19;;;;;;;36.23;15.25;;;;;;;0.58;100.00;99908.89;2249009;79;21055;-58
2022/11/30 04:36:21;;;;;;;35.95;16.30;;;;;;;0.61;100.00;99905.86;2249266;79;21575;-58
2022/11/30 04:39:22;;;;;;;40.38;15.68;;;;;;;0.53;100.00;99910.17;2248986;79;21001;-58
2022/11/30 04:42:24;;;;;;;36.23;15.30;;;;;;;0.61;100.00;99911.46;2248652;79;20953;-58
2022/11/30 04:45:25;;;;;;;37.13;14.28;;;;;;;0.66;100.00;99914.87;2249115;79;21008;-59
2022/11/30 04:48:26;;;;;;;37.63;15.68;;;;;;;0.67;100.00;99908.85;2248985;79;21087;-58
2022/11/30 04:51:28;;;;;;;38.98;15.90;;;;;;;0.66;100.00;99909.30;2249279;79;21048;-58
2022/11/30 04:54:29;;;;;;;42.20;16.95;;;;;;;0.72;100.00;99914.88;2248886;79;21075;-58
2022/11/30 04:57:31;;;;;;;37.53;16.12;;;;;;;0.85;100.00;99920.41;2253574;79;21633;-58
2022/11/30 05:00:32;;;;;;;36.90;15.83;;;;;;;0.98;100.00;99913.47;2256485;79;21024;-59
2022/11/30 05:03:34;;;;;;;39.27;15.58;;;;;;;1.06;100.00;99925.05;2256290;79;21075;-58
2022/11/30 05:06:35;;;;;;;38.85;15.95;;;;;;;1.12;100.00;99930.63;2256383;79;21024;-59
2022/11/30 05:09:36;;;;;;;41.77;15.48;;;;;;;1.03;100.00;99937.98;2256235;79;21028;-59
2022/11/30 05:12:38;;;;;;;36.23;14.55;;;;;;;0.93;100.00;99937.16;2256528;79;21087;-58
2022/11/30 05:15:39;;;;;;;36.25;15.55;;;;;;;1.10;100.00;99942.70;2256517;79;21107;-58
2022/11/30 05:18:41;;;;;;;40.07;15.43;;;;;;;0.97;100.00;99941.45;2256734;79;21555;-58
2022/11/30 05:21:42;;;;;;;36.45;14.70;;;;;;;0.85;100.00;99940.23;2256153;79;21088;-59
2022/11/30 05:24:44;;;;;;;40.20;16.05;;;;;;;0.83;100.00;99940.65;2256611;79;21468;-58
2022/11/30 05:27:45;;;;;;;38.67;15.68;;;;;;;0.78;100.00;99947.13;2256692;79;21028;-58
2022/11/30 05:30:47;;;;;;;41.25;14.85;;;;;;;0.71;100.00;99942.84;2256190;79;21068;-58
2022/11/30 05:33:48;;;;;;;37.90;15.10;;;;;;;0.61;100.00;99945.03;2256338;79;21068;-58
2022/11/30 05:36:50;;;;;;;36.00;15.08;;;;;;;0.57;100.00;99942.88;2256333;79;21076;-58
2022/11/30 05:39:52;;;;;;;38.63;14.73;;;;;;;0.56;100.00;99943.76;2256740;79;21016;-58
2022/11/30 05:42:53;;;;;;;40.17;15.65;;;;;;;0.47;100.00;99938.59;2255994;79;21444;-58
2022/11/30 05:45:55;;;;;;;36.35;14.85;;;;;;;0.46;100.00;99948.48;2255873;79;20973;-59
2022/11/30 05:48:56;;;;;;;36.83;14.80;;;;;;;0.47;100.00;99956.67;2256150;79;21083;-58
2022/11/30 05:51:58;;;;;;;35.48;16.20;;;;;;;0.43;100.00;99960.99;2256233;79;21028;-58
2022/11/30 05:54:59;;;;;;;38.65;14.65;;;;;;;0.48;100.00;99957.10;2256418;79;21099;-58
2022/11/30 05:58:01;;;;;;;40.17;15.55;;;;;;;0.42;100.00;99961.00;2256013;79;21024;-59
2022/11/30 06:01:02;;;;;;;38.50;14.65;;;;;;;0.49;100.00;99957.09;2256179;79;21486;-58
2022/11/30 06:04:04;;;;;;;35.85;14.75;;;;;;;0.51;100.00;99955.36;2256194;79;21020;-58
2022/11/30 06:07:10;;;;;;;41.85;15.70;;;;;;;0.48;100.00;99955.37;2256587;79;21503;-58
2022/11/30 06:10:08;;;;;;;37.78;15.20;;;;;;;0.48;100.00;99957.10;2229956;79;21459;-58
2022/11/30 06:13:10;;;;;;;37.55;14.28;;;;;;;0.51;100.00;99954.06;2256363;79;21041;-58
2022/11/30 06:16:11;;;;;;;33.73;13.53;;;;;;;0.45;100.00;99958.41;2256124;79;21602;-58
2022/11/30 06:19:13;;;;;;;42.67;14.68;;;;;;;0.43;100.00;99960.11;2256187;79;21049;-59
2022/11/30 06:22:14;;;;;;;38.83;14.98;;;;;;;0.37;100.00;99962.71;2256610;79;21486;-58
2022/11/30 06:25:17;;;;;;;33.98;13.60;;;;;;;0.39;100.00;99967.02;2229344;79;20969;-58
2022/11/30 06:28:19;;;;;;;35.88;13.55;;;;;;;0.37;100.00;99961.42;2256339;79;20988;-59
2022/11/30 06:31:20;;;;;;;40.92;15.30;;;;;;;0.42;100.00;99967.45;2256603;79;21543;-59
2022/11/30 06:34:22;;;;;;;43.02;14.85;;;;;;;0.44;100.00;99972.16;2256443;79;21044;-58
2022/11/30 06:37:23;;;;;;;38.38;15.03;;;;;;;0.48;100.00;99975.17;2256272;79;21045;-59
2022/11/30 06:40:24;;;;;;;35.63;15.05;;;;;;;0.44;100.00;99982.49;2256397;79;21036;-59
2022/11/30 06:43:26;;;;;;;36.28;14.35;;;;;;;0.50;100.00;99979.89;2256106;79;21080;-59
2022/11/30 06:46:27;;;;;;;41.27;16.77;;;;;;;0.56;100.00;99981.20;2256362;79;21519;-58
2022/11/30 06:49:29;;;;;;;38.48;15.43;;;;;;;0.41;100.00;99983.34;2256142;79;21036;-58
2022/11/30 06:52:31;;;;;;;39.63;15.88;;;;;;;0.43;100.00;99980.77;2256198;79;21583;-58
2022/11/30 06:55:34;;;;;;;40.00;16.23;;;;;;;0.50;100.00;99984.65;2256407;79;21100;-58
2022/11/30 06:58:36;;;;;;;44.53;15.98;;;;;;;0.57;100.00;99988.50;2255791;79;21056;-58
2022/11/30 07:01:38;;;;;;;40.12;14.93;;;;;;;0.62;100.00;99986.78;2256148;79;21570;-59
2022/11/30 07:04:39;;;;;;;38.25;13.75;;;;;;;0.69;100.00;99988.05;2256274;79;21063;-58
2022/11/30 07:07:40;;;;;;;36.53;14.85;;;;;;;0.71;100.00;99985.45;2256133;79;21052;-59
2022/11/30 07:10:42;;;;;;;39.53;14.87;;;;;;;0.69;100.00;99984.61;2255851;79;21011;-59
2022/11/30 07:13:44;;;;;;;38.33;14.98;;;;;;;0.52;100.00;99987.22;2256123;79;20941;-58
2022/11/30 07:16:46;;;;;;;37.33;14.70;;;;;;;0.47;100.00;99986.36;2256358;79;21083;-58
2022/11/30 07:19:47;;;;;;;34.45;13.13;;;;;;;0.43;100.00;99989.80;2256097;79;21047;-58
2022/11/30 07:22:49;;;;;;;38.02;15.10;;;;;;;0.35;100.00;99994.98;2256558;79;21068;-58
2022/11/30 07:28:56;;;;;;;31.95;13.20;;;;;;;0.19;100.00;99986.80;2229776;79;21440;-58
2022/11/30 07:31:58;;;;;;;43.50;15.68;;;;;;;0.33;100.00;99979.50;2230020;79;20977;-58
2022/11/30 07:34:59;;;;;;;33.98;13.68;;;;;;;0.31;100.00;99986.80;2256246;79;21000;-59
2022/11/30 07:38:01;;;;;;;34.25;13.93;;;;;;;0.28;100.00;99983.79;2256104;79;21064;-59
2022/11/30 07:41:04;;;;;;;37.13;14.65;;;;;;;0.37;100.00;99989.81;2256221;79;21028;-59
2022/11/30 07:44:05;;;;;;;37.50;15.68;;;;;;;0.50;100.00;99988.52;2229561;79;20937;-59
2022/11/30 07:47:07;;;;;;;42.17;15.25;;;;;;;0.70;100.00;99981.15;2256146;79;21043;-59
2022/11/30 07:50:09;;;;;;;35.98;13.85;;;;;;;0.76;100.00;99986.32;2255938;79;21152;-59
2022/11/30 07:53:11;;;;;;;36.35;12.75;;;;;;;0.73;100.00;99989.33;2256475;79;21005;-58
2022/11/30 07:56:12;;;;;;;34.33;13.85;;;;;;;0.51;100.00;99976.02;2256327;79;21083;-59
2022/11/30 07:59:14;;;;;;;33.55;12.85;;;;;;;0.37;100.00;99989.81;2256380;79;21118;-59
2022/11/30 08:02:15;;;;;;;34.90;14.05;;;;;;;0.42;100.00;99985.52;2256115;79;20968;-58
2022/11/30 08:05:17;;;;;;;35.60;13.30;;;;;;;0.46;100.00;99992.38;2256492;79;21609;-58
2022/11/30 08:08:18;;;;;;;34.67;14.23;;;;;;;0.44;100.00;99983.34;2256219;79;21044;-58
2022/11/30 08:11:20;;;;;;;35.55;13.45;;;;;;;0.43;100.00;99991.09;2256088;79;21099;-58
2022/11/30 08:14:22;;;;;;;31.82;14.35;;;;;;;0.36;100.00;99990.67;2256513;79;21020;-59
2022/11/30 08:17:23;;;;;;;35.03;13.87;;;;;;;0.40;100.00;99993.67;2256398;79;21079;-58
2022/11/30 08:20:25;;;;;;;31.97;12.85;;;;;;;0.42;100.00;99994.55;2256194;79;21013;-59
2022/11/30 08:23:26;;;;;;;37.35;13.72;;;;;;;0.31;100.00;99997.98;2256115;79;21044;-59
2022/11/30 08:26:27;;;;;;;37.95;15.32;;;;;;;0.41;100.00;99990.24;2256243;79;21072;-58
2022/11/30 08:29:29;;;;;;;37.33;14.60;;;;;;;0.43;100.00;99989.80;2256166;79;21020;-58
2022/11/30 08:32:30;;;;;;;38.33;15.32;;;;;;;0.62;100.00;99987.63;2256439;79;21095;-58
2022/11/30 08:35:32;;;;;;;39.60;15.85;;;;;;;0.75;100.00;100001.38;2256263;79;21037;-59
2022/11/30 08:38:33;;;;;;;39.85;16.00;;;;;;;0.80;100.00;100007.38;2256242;79;21527;-59
2022/11/30 08:41:35;;;;;;;37.63;14.70;;;;;;;0.89;100.00;100003.94;2256414;79;21080;-59
2022/11/30 08:44:36;;;;;;;37.50;15.73;;;;;;;0.94;100.00;100005.21;2256813;79;21096;-59
2022/11/30 08:47:38;;;;;;;42.38;16.10;;;;;;;1.04;100.00;100010.78;2256353;79;21069;-59
2022/11/30 08:50:39;;;;;;;39.48;15.30;;;;;;;1.11;100.00;100009.89;2256243;79;21044;-58
2022/11/30 08:53:41;;;;;;;41.97;15.50;;;;;;;1.19;100.00;100013.73;2256776;79;21028;-58
2022/11/30 08:56:43;;;;;;;35.95;14.93;;;;;;;1.15;100.00;100012.02;2256661;79;21091;-58
2022/11/30 08:59:45;;;;;;;43.23;18.62;;;;;;;1.27;100.00;100013.72;2256401;79;21099;-58
2022/11/30 09:02:46;;;;;;;35.90;14.55;;;;;;;1.24;100.00;100018.46;2256152;79;21147;-58
2022/11/30 09:05:48;;;;;;;37.25;15.43;;;;;;;1.23;100.00;100015.88;2256654;79;21088;-58
2022/11/30 09:08:50;;;;;;;38.28;15.32;;;;;;;1.15;100.00;100012.02;2256262;79;21111;-58
2022/11/30 09:11:51;;;;;;;34.67;13.80;;;;;;;1.12;100.00;100015.91;2256389;79;21033;-59
2022/11/30 09:14:52;;;;;;;36.75;13.50;;;;;;;1.02;100.00;100017.66;2256235;79;21024;-58
2022/11/30 09:17:54;;;;;;;31.00;13.50;;;;;;;0.91;100.00;100020.73;2256427;79;21064;-58
2022/11/30 09:20:55;;;;;;;31.17;13.05;;;;;;;0.93;100.00;100022.86;2256231;79;21068;-58
2022/11/30 09:23:57;;;;;;;32.28;13.72;;;;;;;0.97;100.00;100022.84;2256233;79;21547;-58
2022/11/30 09:26:58;;;;;;;31.75;13.40;;;;;;;1.06;100.00;100027.13;2256252;79;21073;-58
2022/11/30 09:30:01;;;;;;;34.63;14.80;;;;;;;1.16;100.00;100025.38;2256207;79;21044;-58
2022/11/30 09:33:02;;;;;;;32.10;13.30;;;;;;;1.27;100.00;100025.34;2256409;79;21079;-58
2022/11/30 09:36:03;;;;;;;33.90;12.80;;;;;;;1.31;100.00;100024.48;2256192;79;21044;-58
2022/11/30 09:39:05;;;;;;;35.00;14.03;;;;;;;1.41;100.00;100018.80;2256285;79;21072;-58
2022/11/30 09:42:07;;;;;;;30.72;12.80;;;;;;;1.47;100.00;100021.39;2256148;79;21558;-58
2022/11/30 09:45:09;;;;;;;33.98;13.48;;;;;;;1.54;100.00;100012.73;2256171;79;21099;-58
2022/11/30 09:48:10;;;;;;;38.37;14.33;;;;;;;1.51;100.00;100017.48;2256379;79;21052;-59
2022/11/30 09:51:13;;;;;;;34.35;14.25;;;;;;;1.48;100.00;100006.27;2256339;79;21024;-58
2022/11/30 09:54:15;;;;;;;31.93;13.28;;;;;;;1.40;100.00;100001.16;2256168;79;21577;-58
2022/11/30 09:57:16;;;;;;;32.60;13.32;;;;;;;1.30;100.00;100001.62;2256133;79;21040;-58
2022/11/30 10:00:18;;;;;;;29.57;12.68;;;;;;;1.23;100.00;100001.22;2256227;79;21045;-58
2022/11/30 10:03:21;;;;;;;32.27;13.70;;;;;;;1.10;100.00;99996.98;2256727;79;21080;-58
2022/11/30 10:06:24;;;;;;;34.73;13.78;;;;;;;1.20;100.00;99998.21;2229606;79;20977;-58
2022/11/30 10:09:25;;;;;;;32.00;13.30;;;;;;;1.35;100.00;99997.72;2256313;79;20999;-58
2022/11/30 10:12:27;;;;;;;32.33;13.43;;;;;;;1.40;100.00;100005.47;2256599;79;21056;-58
2022/11/30 10:15:28;;;;;;;32.17;13.25;;;;;;;1.32;100.00;100005.08;2256541;79;21056;-58
2022/11/30 10:18:30;;;;;;;36.03;14.30;;;;;;;1.20;100.00;100008.99;2255986;79;21031;-59
2022/11/30 10:21:31;;;;;;;32.83;12.35;;;;;;;1.27;100.00;100009.84;2256365;79;21611;-58
2022/11/30 10:24:33;;;;;;;31.75;13.48;;;;;;;1.01;100.00;100010.79;2256432;79;21017;-58
2022/11/30 10:27:34;;;;;;;31.48;12.70;;;;;;;1.06;100.00;100010.77;2256316;79;21036;-58
2022/11/30 10:30:36;;;;;;;30.53;12.60;;;;;;;1.05;100.00;100012.50;2256192;79;20996;-59
2022/11/30 10:33:37;;;;;;;32.25;12.58;;;;;;;1.15;100.00;100005.14;2256217;79;21357;-58
2022/11/30 10:36:39;;;;;;;32.00;13.37;;;;;;;1.17;100.00;100005.98;2256504;79;21119;-58
2022/11/30 10:39:41;;;;;;;34.48;13.30;;;;;;;1.31;100.00;100007.23;2256271;79;21068;-58
2022/11/30 10:42:43;;;;;;;32.65;13.13;;;;;;;1.30;100.00;100003.36;2256427;79;21014;-58
2022/11/30 10:45:46;;;;;;;33.25;14.10;;;;;;;1.27;100.00;100012.42;2256150;79;21555;-58
2022/11/30 10:48:48;;;;;;;32.42;13.25;;;;;;;1.33;100.00;100009.36;2256155;79;21080;-58
2022/11/30 10:51:49;;;;;;;32.83;13.53;;;;;;;1.35;100.00;100003.77;2256107;79;21499;-58
2022/11/30 10:54:51;;;;;;;45.12;17.67;;;;;;;1.44;100.00;100003.27;2255899;79;21039;-58
2022/11/30 10:57:53;;;;;;;37.00;14.87;;;;;;;1.42;100.00;100003.28;2256301;79;21493;-58
2022/11/30 11:00:54;;;;;;;43.38;17.57;;;;;;;1.51;100.00;100005.84;2256138;79;21020;-58
2022/11/30 11:03:56;;;;;;;39.78;17.70;;;;;;;1.60;100.00;100001.05;2256312;79;21550;-58
2022/11/30 11:06:57;;;;;;;39.27;17.05;;;;;;;1.81;100.00;100006.95;2256149;79;21024;-58
2022/11/30 11:10:00;;;;;;;37.90;16.73;;;;;;;1.94;100.00;100006.03;2256406;79;21653;-58
2022/11/30 11:13:02;;;;;;;34.35;15.63;;;;;;;1.95;100.00;100009.46;2256236;79;21092;-59
2022/11/30 11:16:03;;;;;;;35.35;16.00;;;;;;;1.93;100.00;100007.33;2256360;79;21072;-59
2022/11/30 11:19:06;;;;;;;34.78;14.83;;;;;;;2.04;100.00;100003.80;2256204;79;21092;-59
2022/11/30 11:22:07;;;;;;;40.12;17.70;;;;;;;1.98;100.00;100002.52;2256417;79;21047;-59
2022/11/30 11:25:09;;;;;;;35.47;14.67;;;;;;;1.90;100.00;100003.03;2256489;79;21123;-58
2022/11/30 11:28:10;;;;;;;32.73;14.28;;;;;;;1.88;100.00;100006.05;2256259;79;21106;-58
2022/11/30 11:31:12;;;;;;;33.45;15.03;;;;;;;1.93;100.00;100000.42;2256108;79;21017;-58
2022/11/30 11:34:13;;;;;;;31.68;14.40;;;;;;;1.94;100.00;99993.09;2256393;79;21559;-58
2022/11/30 11:37:15;;;;;;;34.75;15.53;;;;;;;1.87;100.00;99997.44;2256102;79;21052;-58
2022/11/30 11:40:16;;;;;;;42.85;18.55;;;;;;;1.92;100.00;99994.80;2256229;79;21583;-58
2022/11/30 11:43:17;;;;;;;48.13;21.90;;;;;;;1.91;100.00;99995.67;2255850;79;21047;-59
2022/11/30 11:46:19;;;;;;;34.78;15.25;;;;;;;1.94;100.00;99999.55;2256517;79;21555;-58
2022/11/30 11:49:21;;;;;;;34.75;15.13;;;;;;;1.82;100.00;99997.89;2256224;79;21047;-58
2022/11/30 11:52:22;;;;;;;36.63;16.73;;;;;;;1.92;100.00;99992.22;2256113;79;21036;-58
2022/11/30 11:55:24;;;;;;;32.85;14.45;;;;;;;2.01;100.00;99988.30;2256170;79;21015;-58
2022/11/30 11:58:26;;;;;;;35.13;15.05;;;;;;;2.00;100.00;99985.72;2254009;79;21115;-59
2022/11/30 12:01:27;;;;;;;32.25;14.45;;;;;;;2.01;100.00;99986.11;2249447;79;21084;-58
2022/11/30 12:04:29;;;;;;;37.90;16.00;;;;;;;1.96;100.00;99982.28;2249170;79;21059;-58
2022/11/30 12:07:30;;;;;;;35.60;15.98;;;;;;;2.06;100.00;99988.25;2249509;79;21013;-58
2022/11/30 12:10:32;;;;;;;33.63;14.30;;;;;;;2.04;100.00;99992.14;2249117;79;21080;-58
2022/11/30 12:13:33;;;;;;;32.50;14.20;;;;;;;2.04;100.00;99989.97;2249226;79;21508;-58
2022/11/30 12:16:36;;;;;;;34.53;14.47;;;;;;;1.90;100.00;99993.53;2249360;79;21100;-58
2022/11/30 12:19:37;;;;;;;34.78;13.20;;;;;;;1.63;100.00;99997.59;2249495;79;21049;-58
2022/11/30 12:22:39;;;;;;;31.73;12.63;;;;;;;1.50;100.00;99997.65;2249244;79;21016;-58
2022/11/30 12:25:40;;;;;;;28.52;12.20;;;;;;;1.40;100.00;100001.16;2249451;79;21021;-58
2022/11/30 12:28:42;;;;;;;29.25;12.25;;;;;;;1.41;100.00;100004.17;2249191;79;21041;-58
2022/11/30 12:31:43;;;;;;;30.93;11.73;;;;;;;1.28;100.00;100002.08;2249781;79;20983;-58
2022/11/30 12:34:45;;;;;;;28.92;11.15;;;;;;;1.35;100.00;100005.47;2249286;79;21322;-58
2022/11/30 12:37:46;;;;;;;31.95;12.15;;;;;;;1.42;100.00;100001.99;2249256;79;21494;-58
2022/11/30 12:40:47;;;;;;;36.10;13.78;;;;;;;1.44;100.00;100009.33;2249202;79;21017;-58
2022/11/30 12:43:49;;;;;;;35.75;13.75;;;;;;;1.57;100.00;100011.42;2249622;79;21495;-58
2022/11/30 12:46:51;;;;;;;33.73;12.20;;;;;;;1.51;100.00;100012.30;2249109;79;21100;-58
2022/11/30 12:49:52;;;;;;;30.77;12.70;;;;;;;1.75;100.00;100013.47;2249418;79;21166;-58
2022/11/30 12:52:54;;;;;;;32.38;11.97;;;;;;;1.76;100.00;100017.34;2249468;79;21013;-58
2022/11/30 12:55:55;;;;;;;28.67;12.13;;;;;;;1.79;100.00;100014.73;2249440;79;21107;-58
2022/11/30 12:58:57;;;;;;;30.12;11.90;;;;;;;1.84;100.00;100015.57;2249169;79;21285;-58
2022/11/30 13:01:59;;;;;;;30.17;12.47;;;;;;;1.93;100.00;100011.22;2249538;79;21033;-58
2022/11/30 13:05:01;;;;;;;29.72;12.10;;;;;;;1.94;100.00;100007.32;2249097;79;21789;-58
2022/11/30 13:08:03;;;;;;;;;;;;;;;1.94;100.00;100007.73;2251949;79;21076;-59
2022/11/30 13:11:05;;;;;;;32.03;12.73;;;;;;;1.93;100.00;100008.62;2249350;79;20129;-58
2022/11/30 13:14:06;;;;;;;35.60;13.23;;;;;;;1.56;100.00;100002.78;2249544;79;21085;-58
2022/11/30 13:17:08;;;;;;;33.92;13.75;;;;;;;1.37;100.00;100003.76;2249500;79;21040;-59
2022/11/30 13:20:10;;;;;;;33.48;13.22;;;;;;;1.44;100.00;100001.98;2249397;79;21049;-58
2022/11/30 13:23:12;;;;;;;29.92;11.28;;;;;;;1.43;100.00;99996.41;2249325;79;21045;-59
2022/11/30 13:26:14;;;;;;;34.60;12.40;;;;;;;1.38;100.00;99991.27;2249353;79;21045;-58
2022/11/30 13:29:15;;;;;;;30.35;12.50;;;;;;;1.27;100.00;99990.01;2249115;79;21041;-58
2022/11/30 13:32:17;;;;;;;34.95;13.68;;;;;;;1.34;100.00;99985.68;2249157;79;21083;-58
2022/11/30 13:35:18;;;;;;;38.28;13.50;;;;;;;1.36;100.00;99983.48;2249123;79;21096;-59
2022/11/30 13:38:20;;;;;;;37.25;14.87;;;;;;;1.51;100.00;99987.73;2249386;79;21016;-58
2022/11/30 13:41:21;;;;;;;37.10;15.72;;;;;;;1.47;100.00;99983.45;2249183;79;21037;-59
2022/11/30 13:44:23;;;;;;;37.05;15.28;;;;;;;1.64;100.00;99987.66;2249418;79;21515;-58
2022/11/30 13:47:24;;;;;;;35.05;13.58;;;;;;;1.71;100.00;99980.28;2249392;79;21099;-58
2022/11/30 13:50:26;;;;;;;33.58;14.75;;;;;;;1.66;100.00;99987.22;2249393;79;21547;-59
2022/11/30 13:53:27;;;;;;;32.75;13.95;;;;;;;1.77;100.00;99979.38;2249272;79;21084;-58